Time;durP1;ratioP1;P1;durP2;ratioP2;P2;SDS_P1;SDS_P2;PMS_P1;PMS_P2;Temp;Humidity;BMP_temperature;BMP_pressure;BME280_temperature;BME280_humidity;BME280_pressure;Samples;Min_cycle;Max_cycle;Signal;HPM_P1;HPM_P2
2022/01/02 00:02:12;;;;;;;10.65;4.95;;;11.60;99.90;;;;;;5025557;28;20056;-82
2022/01/02 00:04:46;;;;;;;8.50;4.78;;;11.60;99.90;;;;;;5025570;28;20100;-82
2022/01/02 00:07:19;;;;;;;9.43;4.93;;;11.60;99.90;;;;;;5016428;28;20053;-82
2022/01/02 00:09:46;;;;;;;10.02;5.38;;;11.60;99.90;;;;;;5026063;28;20078;-82
2022/01/02 00:12:17;;;;;;;12.57;5.32;;;11.60;99.90;;;;;;5021132;28;20041;-82
2022/01/02 00:14:45;;;;;;;11.88;5.13;;;11.50;99.90;;;;;;5020102;28;20498;-82
2022/01/02 00:17:11;;;;;;;9.63;5.30;;;11.50;99.90;;;;;;5029748;28;20099;-81
2022/01/02 00:19:40;;;;;;;10.55;5.35;;;11.50;99.90;;;;;;5027122;28;20045;-82
2022/01/02 00:22:14;;;;;;;14.68;6.18;;;11.50;99.90;;;;;;5023654;28;20495;-82
2022/01/02 00:24:44;;;;;;;12.50;5.80;;;11.50;99.90;;;;;;5024488;28;20050;-82
2022/01/02 00:27:11;;;;;;;12.80;5.72;;;11.50;99.90;;;;;;5024657;28;20033;-82
2022/01/02 00:29:38;;;;;;;16.67;6.25;;;11.60;99.90;;;;;;5029490;28;20053;-82
2022/01/02 00:32:07;;;;;;;11.52;5.60;;;11.50;99.90;;;;;;5024328;28;20045;-82
2022/01/02 00:34:34;;;;;;;15.05;6.15;;;11.40;99.90;;;;;;5019847;28;20104;-82
2022/01/02 00:37:00;;;;;;;12.68;6.57;;;11.40;99.90;;;;;;5018187;28;20436;-82
2022/01/02 00:39:25;;;;;;;15.57;6.78;;;11.40;99.90;;;;;;5017971;28;20043;-82
2022/01/02 00:42:15;;;;;;;15.68;6.35;;;11.40;99.90;;;;;;5026446;28;20290;-82
2022/01/02 00:44:47;;;;;;;11.20;6.65;;;11.40;99.90;;;;;;5024391;28;20085;-82
2022/01/02 00:47:35;;;;;;;10.63;6.35;;;11.40;99.90;;;;;;5022733;28;20052;-82
2022/01/02 00:50:35;;;;;;;16.05;7.13;;;11.40;99.90;;;;;;5020012;28;20046;-82
2022/01/02 00:53:02;;;;;;;12.95;6.95;;;11.40;99.90;;;;;;5016283;28;20060;-82
2022/01/02 00:55:32;;;;;;;17.55;6.97;;;11.40;99.90;;;;;;5025837;28;20037;-82
2022/01/02 00:58:13;;;;;;;10.38;6.40;;;11.30;99.90;;;;;;5030858;28;20045;-82
2022/01/02 01:00:45;;;;;;;15.30;6.60;;;11.30;99.90;;;;;;5015986;28;20059;-82
2022/01/02 01:03:16;;;;;;;16.40;7.00;;;11.40;99.90;;;;;;5026967;28;20409;-83
2022/01/02 01:05:45;;;;;;;15.05;7.72;;;11.30;99.90;;;;;;5018566;28;20046;-83
2022/01/02 01:08:10;;;;;;;15.55;7.07;;;11.40;99.90;;;;;;5023627;28;20120;-83
2022/01/02 01:10:39;;;;;;;14.88;6.47;;;11.40;99.90;;;;;;5025900;28;20894;-83
2022/01/02 01:13:08;;;;;;;15.27;6.82;;;11.40;99.90;;;;;;5012970;28;20065;-83
2022/01/02 01:15:35;;;;;;;16.10;6.57;;;11.40;99.90;;;;;;5012985;28;20052;-83
2022/01/02 01:18:02;;;;;;;15.85;6.93;;;11.40;99.90;;;;;;5020492;28;20473;-83
2022/01/02 01:20:36;;;;;;;14.77;6.68;;;11.40;99.90;;;;;;5020423;28;20042;-83
2022/01/02 01:23:02;;;;;;;15.60;6.78;;;11.40;99.90;;;;;;5024948;28;20511;-83
2022/01/02 01:25:28;;;;;;;13.45;6.72;;;11.40;99.90;;;;;;5028172;28;20034;-83
2022/01/02 01:27:54;;;;;;;16.77;6.80;;;11.10;99.90;;;;;;5029448;28;20050;-83
2022/01/02 01:30:23;;;;;;;15.35;7.30;;;11.40;99.90;;;;;;5021884;28;20160;-82
2022/01/02 01:32:49;;;;;;;14.00;7.22;;;11.40;99.90;;;;;;5026308;28;20048;-82
2022/01/02 01:35:15;;;;;;;14.82;7.60;;;11.40;99.90;;;;;;5028405;28;20045;-82
2022/01/02 01:37:40;;;;;;;16.30;7.95;;;11.40;99.90;;;;;;5028682;28;20053;-83
2022/01/02 01:40:09;;;;;;;14.15;7.07;;;11.40;99.90;;;;;;5026828;28;20148;-83
2022/01/02 01:47:56;;;;;;;16.67;7.60;;;11.40;99.90;;;;;;5027074;28;20059;-83
2022/01/02 01:50:34;;;;;;;13.57;7.20;;;11.40;99.90;;;;;;5028287;28;20123;-83
2022/01/02 01:53:01;;;;;;;21.15;7.47;;;11.40;99.90;;;;;;5026386;28;20404;-83
2022/01/02 01:55:26;;;;;;;17.38;7.95;;;11.40;99.90;;;;;;5027562;28;20049;-83
2022/01/02 01:57:52;;;;;;;19.20;8.10;;;11.40;99.90;;;;;;5027572;28;20091;-83
2022/01/02 02:00:20;;;;;;;19.23;8.23;;;11.30;99.90;;;;;;5026404;28;20452;-83
2022/01/02 02:02:47;;;;;;;18.08;7.90;;;11.40;99.90;;;;;;5025687;28;20424;-83
2022/01/02 02:05:13;;;;;;;15.75;7.55;;;11.40;99.90;;;;;;5027189;28;20335;-83
2022/01/02 02:07:45;;;;;;;17.75;8.35;;;11.40;99.90;;;;;;5026357;28;21257;-83
2022/01/02 02:10:22;;;;;;;13.68;7.88;;;11.30;99.90;;;;;;5026985;28;20045;-83
2022/01/02 02:12:49;;;;;;;17.42;8.77;;;11.30;99.90;;;;;;5024436;28;20049;-83
2022/01/02 02:15:16;;;;;;;17.40;8.32;;;11.30;99.90;;;;;;5027127;28;20432;-83
2022/01/02 02:17:46;;;;;;;19.60;8.95;;;11.30;99.90;;;;;;5028964;28;20037;-83
2022/01/02 02:20:17;;;;;;;18.40;8.25;;;11.30;99.90;;;;;;5026926;28;20046;-83
2022/01/02 02:22:46;;;;;;;18.90;8.68;;;11.30;99.90;;;;;;5027631;28;20045;-83
2022/01/02 02:25:14;;;;;;;20.00;8.90;;;11.30;99.90;;;;;;5025959;28;20033;-83
2022/01/02 02:27:47;;;;;;;21.42;8.80;;;11.50;99.90;;;;;;5028002;28;20080;-83
2022/01/02 02:30:12;;;;;;;15.70;8.15;;;11.30;99.90;;;;;;5023790;28;20047;-83
2022/01/02 02:32:38;;;;;;;17.25;8.55;;;11.20;99.90;;;;;;5021461;28;20037;-83
2022/01/02 02:35:04;;;;;;;16.50;8.50;;;11.30;99.90;;;;;;5025448;28;20480;-83
2022/01/02 02:37:30;;;;;;;19.92;8.32;;;11.30;99.90;;;;;;5025482;28;20049;-83
2022/01/02 02:39:56;;;;;;;18.88;8.85;;;11.30;99.90;;;;;;5026241;28;20549;-83
2022/01/02 02:42:42;;;;;;;18.25;8.57;;;11.20;99.90;;;;;;5024146;28;20501;-83
2022/01/02 02:50:47;;;;;;;20.20;9.07;;;11.30;99.90;;;;;;5024878;28;20045;-83
2022/01/02 02:53:14;;;;;;;18.70;9.07;;;11.30;99.90;;;;;;5022496;28;20555;-84
2022/01/02 02:55:45;;;;;;;22.10;9.38;;;11.30;99.90;;;;;;5025494;28;20519;-84
2022/01/02 02:58:39;;;;;;;21.55;8.98;;;11.20;99.90;;;;;;5027760;28;20099;-84
2022/01/02 03:00:56;;;;;;;22.05;9.45;;;11.30;99.90;;;;;;5027025;28;20507;-83
2022/01/02 03:03:22;;;;;;;20.40;9.27;;;11.20;99.90;;;;;;5018629;28;20124;-83
2022/01/02 03:05:48;;;;;;;17.45;8.77;;;11.20;99.90;;;;;;5025734;28;20129;-83
2022/01/02 03:08:13;;;;;;;19.15;8.45;;;11.30;99.90;;;;;;5022995;28;20493;-84
2022/01/02 03:10:39;;;;;;;21.55;10.05;;;11.20;99.90;;;;;;5026785;28;20469;-84
2022/01/02 03:13:05;;;;;;;23.58;9.80;;;11.20;99.90;;;;;;5019150;28;20053;-84
2022/01/02 03:15:30;;;;;;;20.80;9.10;;;11.20;99.90;;;;;;5022765;28;20493;-84
2022/01/02 03:17:56;;;;;;;21.60;9.80;;;11.20;99.90;;;;;;5025577;28;20075;-84
2022/01/02 03:20:21;;;;;;;17.83;9.25;;;11.20;99.90;;;;;;5026690;28;20049;-84
2022/01/02 03:22:47;;;;;;;20.85;9.27;;;11.20;99.90;;;;;;5024914;28;20060;-84
2022/01/02 03:25:14;;;;;;;18.63;8.98;;;11.20;99.90;;;;;;5022191;28;20037;-84
2022/01/02 03:27:43;;;;;;;22.88;9.18;;;11.20;99.90;;;;;;5024335;28;20069;-84
2022/01/02 03:30:10;;;;;;;21.45;10.05;;;11.20;99.90;;;;;;5019628;28;20038;-84
2022/01/02 03:32:36;;;;;;;16.88;9.18;;;11.20;99.90;;;;;;5025087;28;20453;-84
2022/01/02 03:35:03;;;;;;;23.35;10.52;;;11.20;99.90;;;;;;5026798;28;20037;-84
2022/01/02 03:37:29;;;;;;;19.38;8.10;;;11.20;99.90;;;;;;5021865;28;20041;-84
2022/01/02 03:39:57;;;;;;;17.52;9.20;;;11.20;99.90;;;;;;5022207;28;20496;-84
2022/01/02 03:42:22;;;;;;;27.17;10.23;;;11.20;99.90;;;;;;5025977;28;20065;-84
2022/01/02 03:44:48;;;;;;;19.48;9.82;;;11.20;99.90;;;;;;5027302;28;20485;-84
2022/01/02 03:47:13;;;;;;;21.10;9.45;;;11.20;99.90;;;;;;5025975;28;20045;-84
2022/01/02 03:49:39;;;;;;;22.25;10.10;;;11.20;99.90;;;;;;5024673;28;20041;-84
2022/01/02 03:52:05;;;;;;;18.85;9.57;;;11.20;99.90;;;;;;5025601;28;20061;-84
2022/01/02 03:54:31;;;;;;;22.75;9.65;;;11.20;99.90;;;;;;5030001;28;20110;-84
2022/01/02 03:56:57;;;;;;;20.15;8.75;;;11.20;99.90;;;;;;5028003;28;20051;-84
2022/01/02 03:59:23;;;;;;;24.20;10.18;;;11.20;99.90;;;;;;5032455;28;20132;-84
2022/01/02 04:01:48;;;;;;;22.17;9.10;;;11.20;99.90;;;;;;5030285;28;20408;-84
2022/01/02 04:04:14;;;;;;;25.25;9.25;;;11.30;99.90;;;;;;5023877;28;20046;-84
2022/01/02 04:06:39;;;;;;;21.13;9.30;;;11.30;99.90;;;;;;5025301;28;20045;-84
2022/01/02 04:09:05;;;;;;;23.05;8.77;;;11.30;99.90;;;;;;5028618;28;20131;-84
2022/01/02 04:11:31;;;;;;;19.77;8.80;;;11.30;99.90;;;;;;5024804;28;20061;-84
2022/01/02 04:13:56;;;;;;;20.90;8.57;;;11.40;99.90;;;;;;5026635;28;20053;-84
2022/01/02 04:16:22;;;;;;;22.13;9.00;;;11.40;99.90;;;;;;5030419;28;20476;-84
2022/01/02 04:18:49;;;;;;;22.20;8.35;;;11.40;99.90;;;;;;5028126;28;20041;-84
2022/01/02 04:21:15;;;;;;;22.30;8.75;;;11.40;99.90;;;;;;5024932;28;20049;-84
2022/01/02 04:23:41;;;;;;;22.60;8.70;;;11.40;99.90;;;;;;5027723;28;20563;-83
2022/01/02 04:26:07;;;;;;;18.80;7.65;;;11.40;99.90;;;;;;5029281;28;20080;-84
2022/01/02 04:28:32;;;;;;;20.35;7.90;;;11.40;99.90;;;;;;5026824;28;20092;-84
2022/01/02 04:30:58;;;;;;;19.42;8.00;;;11.40;99.90;;;;;;5027753;28;20483;-84
2022/01/02 04:33:23;;;;;;;22.27;9.77;;;11.40;99.90;;;;;;5030196;28;20172;-84
2022/01/02 04:35:49;;;;;;;21.13;7.97;;;11.40;99.90;;;;;;5023870;28;20485;-84
2022/01/02 04:38:15;;;;;;;19.50;7.93;;;11.40;99.90;;;;;;5026509;28;20463;-84
2022/01/02 04:40:41;;;;;;;24.17;8.63;;;11.40;99.90;;;;;;5031505;28;20055;-84
2022/01/02 04:43:07;;;;;;;18.52;7.32;;;11.40;99.90;;;;;;5028631;28;20057;-84
2022/01/02 04:45:34;;;;;;;24.80;8.10;;;11.40;99.90;;;;;;5024130;28;21742;-84
2022/01/02 04:48:00;;;;;;;21.13;8.65;;;11.30;99.90;;;;;;5027737;28;20788;-84
2022/01/02 04:50:25;;;;;;;18.52;8.45;;;11.30;99.90;;;;;;5027156;28;20045;-84
2022/01/02 04:52:51;;;;;;;21.33;8.57;;;11.40;99.90;;;;;;5025970;28;20394;-84
2022/01/02 04:55:18;;;;;;;20.52;8.73;;;11.30;99.90;;;;;;5028916;28;20054;-85
2022/01/02 04:57:43;;;;;;;21.05;7.47;;;11.40;99.90;;;;;;5028503;28;20127;-85
2022/01/02 05:00:10;;;;;;;22.38;7.93;;;11.30;99.90;;;;;;5026706;28;20065;-85
2022/01/02 05:02:35;;;;;;;20.42;8.18;;;11.30;99.90;;;;;;5027301;28;20048;-84
2022/01/02 05:05:01;;;;;;;18.42;7.38;;;11.40;99.90;;;;;;5025041;28;20042;-84
2022/01/02 05:07:26;;;;;;;21.63;7.45;;;11.30;99.90;;;;;;5028558;28;20377;-85
2022/01/02 05:09:52;;;;;;;18.02;7.57;;;11.40;99.90;;;;;;5028714;28;20073;-85
2022/01/02 05:12:17;;;;;;;20.52;7.00;;;11.40;99.90;;;;;;5022261;28;20041;-85
2022/01/02 05:14:43;;;;;;;20.15;6.75;;;11.40;99.90;;;;;;5027976;28;20092;-85
2022/01/02 05:17:09;;;;;;;12.50;6.70;;;11.40;99.90;;;;;;5024040;28;20060;-85
2022/01/02 05:19:34;;;;;;;18.17;6.95;;;11.40;99.90;;;;;;5025929;28;20493;-85
2022/01/02 05:22:00;;;;;;;18.60;6.65;;;11.40;99.90;;;;;;5025668;28;20033;-85
2022/01/02 05:24:25;;;;;;;17.17;7.03;;;11.40;99.90;;;;;;5025806;28;20063;-85
2022/01/02 05:26:53;;;;;;;18.15;7.78;;;11.40;99.90;;;;;;5025392;28;20401;-85
2022/01/02 05:29:19;;;;;;;20.65;6.85;;;11.40;99.90;;;;;;5028482;28;20088;-85
2022/01/02 05:31:45;;;;;;;15.88;6.30;;;11.40;99.90;;;;;;5035483;28;20041;-85
2022/01/02 05:34:11;;;;;;;14.25;5.82;;;11.40;99.90;;;;;;5031135;28;20068;-85
2022/01/02 05:36:37;;;;;;;15.60;6.22;;;11.50;99.90;;;;;;5028901;28;20480;-85
2022/01/02 05:39:03;;;;;;;17.45;6.68;;;11.50;99.90;;;;;;5025344;28;20083;-85
2022/01/02 05:41:30;;;;;;;14.52;5.90;;;11.50;99.90;;;;;;5026752;28;20095;-85
2022/01/02 05:43:56;;;;;;;18.08;6.45;;;11.50;99.90;;;;;;5027453;28;20486;-86
2022/01/02 05:46:22;;;;;;;18.83;6.38;;;11.50;99.90;;;;;;5022086;28;20045;-85
2022/01/02 05:48:48;;;;;;;15.43;6.00;;;11.50;99.90;;;;;;5025893;28;20124;-85
2022/01/02 05:51:14;;;;;;;16.55;5.90;;;11.60;99.90;;;;;;5025876;28;20057;-86
2022/01/02 05:53:39;;;;;;;19.80;5.95;;;11.50;99.90;;;;;;5025043;28;20049;-85
2022/01/02 05:56:05;;;;;;;17.85;5.57;;;11.60;99.90;;;;;;5025988;28;20053;-86
2022/01/02 05:58:31;;;;;;;17.52;6.10;;;11.60;99.90;;;;;;5022945;28;20045;-85
2022/01/02 06:00:57;;;;;;;18.08;6.53;;;11.60;99.90;;;;;;5023941;28;20099;-85
2022/01/02 06:03:23;;;;;;;18.20;5.43;;;11.60;99.90;;;;;;5026304;28;21680;-85
2022/01/02 06:05:48;;;;;;;18.90;6.07;;;11.60;99.90;;;;;;5026384;28;20037;-85
2022/01/02 06:08:14;;;;;;;16.70;6.15;;;11.60;99.90;;;;;;5025071;28;20509;-84
2022/01/02 06:10:40;;;;;;;20.23;6.28;;;11.60;99.90;;;;;;5024716;28;20044;-85
2022/01/02 06:13:05;;;;;;;17.90;5.93;;;11.60;99.90;;;;;;5020209;28;20076;-84
2022/01/02 06:15:31;;;;;;;19.13;5.88;;;11.60;99.90;;;;;;5026371;28;20106;-86
2022/01/02 06:17:57;;;;;;;18.48;6.07;;;11.60;99.90;;;;;;5025619;28;20416;-84
2022/01/02 06:20:23;;;;;;;19.20;5.35;;;11.60;99.90;;;;;;5025255;28;20138;-85
2022/01/02 06:22:50;;;;;;;17.83;6.25;;;11.60;99.90;;;;;;5024425;28;20508;-85
2022/01/02 06:25:16;;;;;;;16.92;5.65;;;11.60;99.90;;;;;;5022504;28;20064;-82
2022/01/02 06:27:42;;;;;;;18.08;5.80;;;11.60;99.90;;;;;;5028848;28;20041;-81
2022/01/02 06:30:09;;;;;;;16.95;5.60;;;11.60;99.90;;;;;;5026681;28;20068;-82
2022/01/02 06:32:35;;;;;;;19.95;4.82;;;11.60;99.90;;;;;;5026950;28;20401;-80
2022/01/02 06:35:00;;;;;;;17.00;5.22;;;11.70;99.90;;;;;;5027026;28;20048;-80
2022/01/02 06:37:26;;;;;;;17.45;5.45;;;11.70;99.90;;;;;;5026169;28;20053;-80
2022/01/02 06:39:52;;;;;;;17.13;5.30;;;11.70;99.90;;;;;;5027984;28;20453;-80
2022/01/02 06:42:17;;;;;;;13.60;5.55;;;11.70;99.90;;;;;;5026702;28;20172;-80
2022/01/02 06:44:43;;;;;;;17.52;5.70;;;11.70;99.90;;;;;;5026459;28;20090;-80
2022/01/02 06:47:08;;;;;;;19.58;5.22;;;11.80;99.90;;;;;;5026401;28;20382;-80
2022/01/02 06:49:34;;;;;;;11.88;4.70;;;11.80;99.90;;;;;;5029686;28;20140;-80
2022/01/02 06:52:00;;;;;;;15.05;4.88;;;11.80;99.90;;;;;;5022185;28;20414;-80
2022/01/02 06:54:25;;;;;;;13.55;4.15;;;11.80;99.90;;;;;;5028575;28;20147;-80
2022/01/02 06:56:51;;;;;;;11.90;4.13;;;11.80;99.90;;;;;;5023323;28;20099;-81
2022/01/02 06:59:17;;;;;;;14.50;4.90;;;11.80;99.90;;;;;;5025180;28;20060;-80
2022/01/02 07:01:43;;;;;;;16.40;4.85;;;11.90;99.90;;;;;;5028379;28;20045;-80
2022/01/02 07:04:09;;;;;;;10.70;3.30;;;11.90;99.90;;;;;;5023201;28;20053;-80
2022/01/02 07:06:34;;;;;;;14.73;3.95;;;11.90;99.90;;;;;;5024604;28;20077;-81
2022/01/02 07:09:00;;;;;;;15.20;3.33;;;11.90;99.90;;;;;;5023316;28;20049;-80
2022/01/02 07:11:26;;;;;;;11.30;3.30;;;11.90;99.90;;;;;;5028270;28;20045;-81
2022/01/02 07:13:51;;;;;;;13.50;2.75;;;11.90;99.90;;;;;;5027042;28;20116;-79
2022/01/02 07:16:17;;;;;;;9.73;2.83;;;12.00;99.90;;;;;;5029092;28;20041;-80
2022/01/02 07:18:42;;;;;;;9.40;3.03;;;12.00;99.90;;;;;;5029228;28;20045;-80
2022/01/02 07:21:08;;;;;;;7.20;3.40;;;12.00;99.90;;;;;;5026019;28;20053;-80
2022/01/02 07:23:33;;;;;;;10.32;3.08;;;12.00;99.90;;;;;;5027686;28;20046;-80
2022/01/02 07:25:59;;;;;;;11.93;3.15;;;12.00;99.90;;;;;;5029144;28;20084;-80
2022/01/02 07:28:25;;;;;;;8.13;3.47;;;12.00;99.90;;;;;;5028034;28;20060;-79
2022/01/02 07:30:50;;;;;;;12.82;3.60;;;12.00;99.90;;;;;;5031414;28;20076;-79
2022/01/02 07:33:16;;;;;;;11.55;3.40;;;12.00;99.90;;;;;;5029980;28;20341;-79
2022/01/02 07:35:41;;;;;;;11.32;3.55;;;12.00;99.90;;;;;;5028813;28;20525;-80
2022/01/02 07:38:07;;;;;;;11.50;3.78;;;12.00;99.90;;;;;;5028519;28;20465;-80
2022/01/02 07:40:32;;;;;;;9.88;3.08;;;12.00;99.90;;;;;;5028626;28;20387;-79
2022/01/02 07:42:58;;;;;;;14.57;4.78;;;12.00;99.90;;;;;;5030731;28;20206;-79
2022/01/02 07:45:24;;;;;;;11.20;3.72;;;11.90;99.90;;;;;;5035734;28;20068;-79
2022/01/02 07:47:50;;;;;;;8.85;3.47;;;11.90;99.90;;;;;;5035441;28;20045;-78
2022/01/02 07:50:15;;;;;;;14.13;3.92;;;11.90;99.90;;;;;;5028278;28;20172;-79
2022/01/02 07:52:41;;;;;;;10.13;3.50;;;11.90;99.90;;;;;;5028827;28;20111;-79
2022/01/02 07:55:07;;;;;;;9.50;3.13;;;11.90;99.90;;;;;;5027821;28;20064;-79
2022/01/02 07:57:33;;;;;;;11.82;3.28;;;11.90;99.90;;;;;;5032168;28;20116;-80
2022/01/02 07:59:59;;;;;;;13.13;4.03;;;11.90;99.90;;;;;;5035033;28;20041;-78
2022/01/02 08:02:24;;;;;;;10.43;4.07;;;11.80;99.90;;;;;;5030129;28;20065;-80
2022/01/02 08:04:50;;;;;;;13.00;4.05;;;11.80;99.90;;;;;;5030146;28;20090;-73
2022/01/02 08:07:15;;;;;;;10.10;4.15;;;11.80;99.90;;;;;;5027909;28;20401;-83
2022/01/02 08:09:41;;;;;;;11.73;3.65;;;11.80;99.90;;;;;;5029214;28;20083;-83
2022/01/02 08:12:07;;;;;;;13.00;4.15;;;11.80;99.90;;;;;;5024950;28;20171;-82
2022/01/02 08:14:32;;;;;;;14.60;3.78;;;11.80;99.90;;;;;;5027997;28;20041;-81
2022/01/02 08:16:58;;;;;;;9.38;3.97;;;11.80;99.90;;;;;;5028129;28;20038;-80
2022/01/02 08:19:23;;;;;;;13.18;5.30;;;11.80;99.90;;;;;;5029356;28;20565;-80
2022/01/02 08:21:49;;;;;;;9.88;4.13;;;11.80;99.90;;;;;;5028943;28;20034;-81
2022/01/02 08:24:14;;;;;;;14.32;4.40;;;11.80;99.90;;;;;;5026545;28;20045;-78
2022/01/02 08:26:40;;;;;;;11.10;4.07;;;11.80;99.90;;;;;;5029689;28;20473;-78
2022/01/02 08:29:06;;;;;;;19.23;5.00;;;11.70;99.90;;;;;;5027910;28;20049;-78
2022/01/02 08:31:32;;;;;;;10.88;3.83;;;11.70;99.90;;;;;;5027981;28;20029;-79
2022/01/02 08:33:58;;;;;;;10.25;4.60;;;11.70;99.90;;;;;;5029566;28;20056;-78
2022/01/02 08:36:24;;;;;;;9.88;4.47;;;11.70;99.90;;;;;;5030902;28;20104;-80
2022/01/02 08:38:50;;;;;;;8.77;4.13;;;11.60;99.90;;;;;;5029086;28;20045;-81
2022/01/02 08:41:15;;;;;;;13.25;4.85;;;11.70;99.90;;;;;;5028537;28;20120;-80
2022/01/02 08:43:42;;;;;;;12.00;4.50;;;11.60;99.90;;;;;;5031826;28;20532;-80
2022/01/02 08:46:07;;;;;;;12.88;4.65;;;11.60;99.90;;;;;;5029958;28;20049;-79
2022/01/02 08:48:33;;;;;;;13.80;4.75;;;11.60;99.90;;;;;;5028970;28;20048;-80
2022/01/02 08:50:59;;;;;;;9.93;4.32;;;11.60;99.90;;;;;;5027949;28;20050;-80
2022/01/02 08:53:27;;;;;;;10.88;5.15;;;11.60;99.90;;;;;;5030990;28;20079;-80
2022/01/02 08:55:53;;;;;;;11.73;4.32;;;11.60;99.90;;;;;;5029751;28;20041;-80
2022/01/02 08:58:19;;;;;;;9.13;4.15;;;11.50;99.90;;;;;;5029242;28;20041;-80
2022/01/02 09:00:45;;;;;;;12.55;4.85;;;11.60;99.90;;;;;;5029231;28;20533;-80
2022/01/02 09:03:11;;;;;;;7.97;4.70;;;11.50;99.90;;;;;;5028616;28;20033;-80
2022/01/02 09:05:37;;;;;;;12.55;4.75;;;11.50;99.90;;;;;;5028672;28;20033;-80
2022/01/02 09:08:03;;;;;;;9.73;5.43;;;11.50;99.90;;;;;;5029447;28;20140;-81
2022/01/02 09:10:29;;;;;;;12.30;5.38;;;11.50;99.90;;;;;;5028884;28;20084;-81
2022/01/02 09:12:54;;;;;;;11.85;4.75;;;11.50;99.90;;;;;;5021469;28;21193;-81
2022/01/02 09:15:20;;;;;;;10.70;4.80;;;11.50;99.90;;;;;;5023402;28;20041;-80
2022/01/02 09:17:46;;;;;;;11.20;4.80;;;11.40;99.90;;;;;;5025395;28;20577;-80
2022/01/02 09:20:13;;;;;;;13.18;5.40;;;11.40;99.90;;;;;;5028816;28;20046;-81
2022/01/02 09:22:39;;;;;;;10.80;5.13;;;11.40;99.90;;;;;;5027432;28;20400;-82
2022/01/02 09:25:07;;;;;;;11.35;5.38;;;11.40;99.90;;;;;;5027837;28;20073;-81
2022/01/02 09:27:32;;;;;;;12.27;4.68;;;11.40;99.90;;;;;;5029235;28;20041;-81
2022/01/02 09:29:58;;;;;;;9.05;5.45;;;11.40;99.90;;;;;;5029202;28;20497;-81
2022/01/02 09:32:24;;;;;;;14.35;5.32;;;11.40;99.90;;;;;;5028103;28;20045;-81
2022/01/02 09:34:49;;;;;;;11.43;4.65;;;11.40;99.90;;;;;;5026750;28;20137;-81
2022/01/02 09:37:15;;;;;;;9.10;4.90;;;11.50;99.90;;;;;;5027088;28;20103;-79
2022/01/02 09:39:41;;;;;;;12.95;4.78;;;11.30;99.90;;;;;;5028728;28;20041;-83
2022/01/02 09:42:09;;;;;;;16.13;5.68;;;11.40;99.90;;;;;;5029656;28;20037;-80
2022/01/02 09:44:35;;;;;;;12.43;4.78;;;11.30;99.90;;;;;;5028349;28;20444;-79
2022/01/02 09:47:02;;;;;;;10.80;4.85;;;11.40;99.90;;;;;;5025973;28;20045;-79
2022/01/02 09:49:30;;;;;;;9.77;4.90;;;11.40;99.90;;;;;;5026307;28;20047;-80
2022/01/02 09:51:56;;;;;;;10.10;4.55;;;11.40;99.90;;;;;;5026780;28;20092;-80
2022/01/02 09:54:22;;;;;;;10.95;5.00;;;11.40;99.90;;;;;;5028537;28;20081;-78
2022/01/02 09:56:48;;;;;;;10.18;4.72;;;12.10;99.90;;;;;;5028482;28;20116;-80
2022/01/02 09:59:13;;;;;;;12.75;5.55;;;11.40;99.90;;;;;;5026417;28;20092;-78
2022/01/02 10:01:39;;;;;;;10.38;5.35;;;11.50;99.90;;;;;;5026744;28;20067;-80
2022/01/02 10:04:05;;;;;;;10.32;5.70;;;11.50;99.90;;;;;;5030903;28;20053;-81
2022/01/02 10:06:48;;;;;;;11.27;5.20;;;11.50;99.90;;;;;;5027424;28;20416;-79
2022/01/02 10:09:29;;;;;;;11.98;5.80;;;11.50;99.90;;;;;;5020626;28;20084;-77
2022/01/02 10:12:33;;;;;;;12.60;5.95;;;11.50;99.90;;;;;;5021953;28;20144;-77
2022/01/02 10:15:14;;;;;;;12.32;6.13;;;11.60;99.90;;;;;;5025954;28;20042;-78
2022/01/02 10:18:10;;;;;;;9.30;5.57;;;11.60;99.90;;;;;;5022379;28;20163;-77
2022/01/02 10:20:47;;;;;;;12.93;5.53;;;11.60;99.90;;;;;;5014696;28;20057;-76
2022/01/02 10:23:23;;;;;;;10.05;5.50;;;11.60;99.90;;;;;;5017781;28;20104;-77
2022/01/02 10:25:54;;;;;;;13.18;5.80;;;11.70;99.90;;;;;;5025278;28;20041;-77
2022/01/02 10:28:26;;;;;;;11.88;5.35;;;11.70;99.90;;;;;;5027928;28;20484;-77
2022/01/02 10:31:03;;;;;;;12.40;5.97;;;11.70;99.90;;;;;;5023470;28;20061;-79
2022/01/02 10:33:45;;;;;;;13.45;5.95;;;11.70;99.90;;;;;;5025061;28;20064;-79
2022/01/02 10:36:11;;;;;;;13.48;6.03;;;11.80;99.90;;;;;;5027234;28;20045;-79
2022/01/02 10:38:36;;;;;;;10.55;6.28;;;11.80;99.90;;;;;;5027192;28;20056;-78
2022/01/02 10:41:02;;;;;;;13.48;6.43;;;11.80;99.90;;;;;;5026963;28;20054;-79
2022/01/02 10:43:30;;;;;;;14.43;7.10;;;11.80;99.90;;;;;;5024847;28;20493;-77
2022/01/02 10:46:06;;;;;;;13.63;6.60;;;11.90;99.90;;;;;;5021983;28;20077;-76
2022/01/02 10:48:40;;;;;;;14.30;6.80;;;11.70;99.90;;;;;;5026475;28;20030;-77
2022/01/02 10:51:10;;;;;;;16.67;7.13;;;11.70;99.90;;;;;;5023354;28;20060;-76
2022/01/02 10:53:49;;;;;;;12.50;8.05;;;11.70;99.90;;;;;;5026695;28;20048;-76
2022/01/02 10:56:15;;;;;;;13.65;7.28;;;11.70;99.90;;;;;;5026576;28;20049;-76
2022/01/02 10:58:46;;;;;;;13.30;7.80;;;11.70;99.90;;;;;;5025644;28;20072;-76
2022/01/02 11:01:12;;;;;;;10.93;6.18;;;11.70;99.90;;;;;;5025197;28;20038;-75
2022/01/02 11:03:37;;;;;;;14.10;6.97;;;11.70;99.90;;;;;;5024976;28;20049;-75
2022/01/02 11:06:07;;;;;;;12.27;6.80;;;11.80;99.90;;;;;;5025606;28;20033;-76
2022/01/02 11:08:35;;;;;;;10.68;6.20;;;11.80;99.90;;;;;;5024428;28;20053;-75
2022/01/02 11:11:02;;;;;;;14.07;6.70;;;11.80;99.90;;;;;;5020325;28;20064;-75
2022/01/02 11:13:28;;;;;;;10.95;5.63;;;11.80;99.90;;;;;;5024975;28;20168;-74
2022/01/02 11:15:55;;;;;;;8.25;5.70;;;11.80;99.90;;;;;;5024971;28;20132;-76
2022/01/02 11:18:21;;;;;;;11.23;5.55;;;11.80;99.90;;;;;;5026922;28;20045;-77
2022/01/02 11:20:47;;;;;;;11.15;5.38;;;11.80;99.90;;;;;;5026651;28;20496;-81
2022/01/02 11:23:27;;;;;;;13.50;5.85;;;11.80;99.90;;;;;;5026692;28;20080;-80
2022/01/02 11:26:18;;;;;;;13.50;5.18;;;11.80;99.90;;;;;;5018578;28;20112;-80
2022/01/02 11:28:49;;;;;;;12.57;5.15;;;11.80;99.90;;;;;;5022527;28;20053;-78
2022/01/02 11:31:43;;;;;;;9.05;4.80;;;11.90;99.90;;;;;;5026991;28;20492;-79
2022/01/02 11:34:35;;;;;;;11.05;5.45;;;11.80;99.90;;;;;;5021900;28;20061;-87
2022/01/02 11:37:12;;;;;;;11.77;5.78;;;11.90;99.90;;;;;;5028404;28;20512;-87
2022/01/02 11:39:56;;;;;;;14.27;5.38;;;11.90;99.90;;;;;;5022525;28;20137;-87
2022/01/02 11:42:51;;;;;;;12.00;5.60;;;11.90;99.90;;;;;;5024091;28;20060;-89
2022/01/02 11:45:22;;;;;;;;;;;11.90;99.90;;;;;;5014757;28;20057;-87
2022/01/02 11:47:48;;;;;;;11.70;4.85;;;11.90;99.90;;;;;;5027410;28;19921;-87
2022/01/02 11:50:36;;;;;;;12.23;4.93;;;11.80;99.90;;;;;;5022001;28;20413;-87
2022/01/02 11:53:16;;;;;;;12.25;4.47;;;11.80;99.90;;;;;;5025137;28;20054;-87
2022/01/02 11:55:42;;;;;;;15.40;4.93;;;11.80;99.90;;;;;;5022136;28;20053;-88
2022/01/02 11:58:09;;;;;;;12.02;4.22;;;11.90;99.90;;;;;;5024776;28;20072;-88
2022/01/02 12:00:45;;;;;;;9.98;4.65;;;11.90;99.90;;;;;;5022948;28;20049;-88
2022/01/02 12:03:46;;;;;;;11.48;3.35;;;11.90;99.90;;;;;;5023174;28;20397;-88
2022/01/02 12:06:34;;;;;;;11.95;4.55;;;11.90;99.90;;;;;;5021416;28;20077;-88
2022/01/02 12:09:03;;;;;;;12.50;3.70;;;11.90;99.90;;;;;;5019761;28;20037;-88
2022/01/02 12:11:31;;;;;;;12.95;3.80;;;11.90;99.90;;;;;;5021582;28;20045;-89
2022/01/02 12:14:09;;;;;;;11.75;3.65;;;11.90;99.90;;;;;;5024944;28;20077;-89
2022/01/02 12:16:58;;;;;;;13.18;3.50;;;11.90;99.90;;;;;;5030096;28;20053;-89
2022/01/02 12:19:24;;;;;;;12.27;2.85;;;11.80;99.90;;;;;;5030276;28;20056;-88
2022/01/02 12:22:10;;;;;;;11.88;3.75;;;11.80;99.90;;;;;;5027933;28;20497;-88
2022/01/02 12:24:36;;;;;;;11.57;3.80;;;11.80;99.90;;;;;;5029100;28;20053;-88
2022/01/02 12:27:14;;;;;;;12.65;3.28;;;11.80;99.90;;;;;;5027627;28;20054;-88
2022/01/02 12:29:40;;;;;;;10.55;3.92;;;11.80;99.90;;;;;;5028902;28;20045;-89
2022/01/02 12:32:07;;;;;;;14.02;3.60;;;11.70;99.90;;;;;;5029929;28;20042;-88
2022/01/02 12:34:34;;;;;;;13.07;3.10;;;11.70;99.90;;;;;;5029694;28;20563;-89
2022/01/02 12:37:00;;;;;;;15.25;3.20;;;11.70;99.90;;;;;;5027928;28;20049;-88
2022/01/02 12:39:34;;;;;;;17.02;3.50;;;11.70;99.90;;;;;;5029141;28;20068;-88
2022/01/02 12:42:04;;;;;;;15.48;3.33;;;11.70;99.90;;;;;;5031137;28;20868;-88
2022/01/02 12:44:32;;;;;;;10.25;2.60;;;11.70;99.90;;;;;;5029570;28;20052;-88
2022/01/02 12:47:01;;;;;;;12.25;2.92;;;11.70;99.90;;;;;;5026499;28;20093;-88
2022/01/02 12:49:32;;;;;;;14.70;3.85;;;11.70;99.90;;;;;;5022665;28;20050;-88
2022/01/02 12:51:58;;;;;;;11.25;2.95;;;11.70;99.90;;;;;;5029182;28;20484;-89
2022/01/02 12:54:27;;;;;;;15.60;3.15;;;11.70;99.90;;;;;;5030140;28;20104;-90
2022/01/02 12:56:56;;;;;;;16.27;3.92;;;11.70;99.90;;;;;;5027523;28;20053;-90